Fort Wayne, Indiana
Current Conditions -  °F | °C
As of 6:54 PM on Friday 19 Dec 2014 (Local Time) from KFWA Reporting Station
Overcast Overcast  
Wind Chill: -4°   Ceiling: 3100
Heat Index: -1°   Visibility: 10mi
Dew Point: -4°   Wind: 5mph
Humidity: 79%   Direction: 80°E
Pressure: 30.3"   Gusts: NA
Location:  41.08°N, 85.1°W
Report Text: KFWA 192354Z 08004KT 10SM SCT017 OVC031 M01/M04 A3030 RMK AO2 SLP270 T10111044 10006 21011 50014
Loading
Personal Weather Stations






























Interactive Weather Map New forecast layout! Learn more

10-Day Weather Forecast

Advertisements
Track Severe Weather on mobile